createdAt,value
2016-12-10T00:00:49.464Z,1016.8
2016-12-10T00:02:05.451Z,1016.76
2016-12-10T00:03:21.768Z,1016.79
2016-12-10T00:04:36.811Z,1016.68
2016-12-10T00:05:52.141Z,1016.72
2016-12-10T00:07:07.326Z,1016.73
2016-12-10T00:08:22.368Z,1016.76
2016-12-10T00:09:38.028Z,1016.74
2016-12-10T00:10:52.060Z,1016.76
2016-12-10T00:12:07.359Z,1016.77
2016-12-10T00:13:24.320Z,1016.71
2016-12-10T00:14:36.206Z,1016.76
2016-12-10T00:15:50.076Z,1016.8
2016-12-10T00:17:07.037Z,1016.85
2016-12-10T00:18:21.439Z,1016.83
2016-12-10T00:19:37.784Z,1016.85
2016-12-10T00:20:54.685Z,1016.84
2016-12-10T00:22:10.846Z,1016.83
2016-12-10T00:23:25.642Z,1016.83
2016-12-10T00:24:42.575Z,1016.86
2016-12-10T00:25:57.946Z,1016.83
2016-12-10T00:27:12.913Z,1016.85
2016-12-10T00:28:28.148Z,1016.87
2016-12-10T00:29:42.209Z,1016.89
2016-12-10T00:30:57.447Z,1016.84
2016-12-10T00:32:10.998Z,1016.83
2016-12-10T00:33:26.933Z,1016.8
2016-12-10T00:34:42.854Z,1016.8
2016-12-10T00:35:58.897Z,1016.77
2016-12-10T00:37:15.443Z,1016.72
2016-12-10T00:38:30.528Z,1016.73
2016-12-10T00:39:46.833Z,1016.71
2016-12-10T00:41:02.497Z,1016.68
2016-12-10T00:42:18.818Z,1016.74
2016-12-10T00:43:35.309Z,1016.68
2016-12-10T00:44:52.438Z,1016.7
2016-12-10T00:46:05.584Z,1016.7
2016-12-10T00:47:20.379Z,1016.7
2016-12-10T00:48:33.527Z,1016.62
2016-12-10T00:49:48.854Z,1016.65
2016-12-10T00:51:05.793Z,1016.66
2016-12-10T00:52:17.342Z,1016.63
2016-12-10T00:53:30.931Z,1016.65
2016-12-10T00:54:46.949Z,1016.62
2016-12-10T00:56:03.275Z,1016.64
2016-12-10T00:57:19.714Z,1016.61
2016-12-10T00:58:34.805Z,1016.65
2016-12-10T00:59:48.301Z,1016.66
2016-12-10T01:01:04.897Z,1016.63
2016-12-10T01:02:18.233Z,1016.72
2016-12-10T01:03:32.618Z,1016.62
2016-12-10T01:04:47.856Z,1016.62
2016-12-10T01:06:04.278Z,1016.58
2016-12-10T01:07:21.317Z,1016.61
2016-12-10T01:08:35.777Z,1016.62
2016-12-10T01:09:50.955Z,1016.68
2016-12-10T01:11:06.051Z,1016.68
2016-12-10T01:12:20.736Z,1016.68
2016-12-10T01:13:36.020Z,1016.71
2016-12-10T01:14:52.206Z,1016.63
2016-12-10T01:16:05.443Z,1016.72
2016-12-10T01:17:19.881Z,1016.71
2016-12-10T01:18:36.183Z,1016.75
2016-12-10T01:19:51.530Z,1016.74
2016-12-10T01:21:07.855Z,1016.68
2016-12-10T01:22:24.409Z,1016.67
2016-12-10T01:23:41.306Z,1016.65
2016-12-10T01:24:57.733Z,1016.65
2016-12-10T01:26:12.515Z,1016.61
2016-12-10T01:27:27.641Z,1016.6
2016-12-10T01:28:43.655Z,1016.55
2016-12-10T01:29:59.564Z,1016.58
2016-12-10T01:31:14.972Z,1016.63
2016-12-10T01:32:31.509Z,1016.64
2016-12-10T01:33:48.284Z,1016.61
2016-12-10T01:35:03.222Z,1016.63
2016-12-10T01:36:18.252Z,1016.68
2016-12-10T01:37:33.364Z,1016.72
2016-12-10T01:38:48.733Z,1016.77
2016-12-10T01:40:05.565Z,1016.74
2016-12-10T01:41:18.637Z,1016.72
2016-12-10T01:42:35.189Z,1016.72
2016-12-10T01:43:48.413Z,1016.73
2016-12-10T01:45:01.084Z,1016.72
2016-12-10T01:46:17.703Z,1016.71
2016-12-10T01:47:33.816Z,1016.74
2016-12-10T01:48:50.341Z,1016.72
2016-12-10T01:50:03.323Z,1016.75
2016-12-10T01:51:19.502Z,1016.73
2016-12-10T01:52:35.459Z,1016.71
2016-12-10T01:53:50.484Z,1016.65
2016-12-10T01:55:06.202Z,1016.64
2016-12-10T01:56:22.305Z,1016.66
2016-12-10T01:57:39.033Z,1016.59
2016-12-10T01:58:52.914Z,1016.56
2016-12-10T02:00:08.044Z,1016.51
2016-12-10T02:01:22.400Z,1016.52
2016-12-10T02:02:36.856Z,1016.47
2016-12-10T02:03:53.664Z,1016.46
2016-12-10T02:05:08.099Z,1016.51
2016-12-10T02:06:21.746Z,1016.58
2016-12-10T02:07:37.235Z,1016.48
2016-12-10T02:08:54.084Z,1016.49
2016-12-10T02:10:07.362Z,1016.43
2016-12-10T02:11:22.047Z,1016.47
2016-12-10T02:12:36.421Z,1016.45
2016-12-10T02:13:53.645Z,1016.41
2016-12-10T02:15:10.258Z,1016.47
2016-12-10T02:16:22.317Z,1016.45
2016-12-10T02:17:37.568Z,1016.41
2016-12-10T02:18:53.065Z,1016.39
2016-12-10T02:20:08.979Z,1016.37
2016-12-10T02:21:25.488Z,1016.4
2016-12-10T02:22:37.290Z,1016.42
2016-12-10T02:23:53.987Z,1016.4
2016-12-10T02:25:08.659Z,1016.38
2016-12-10T02:26:21.480Z,1016.38
2016-12-10T02:27:33.334Z,1016.34
2016-12-10T02:28:47.287Z,1016.37
2016-12-10T02:30:01.343Z,1016.34
2016-12-10T02:31:17.795Z,1016.3
2016-12-10T02:32:32.559Z,1016.31
2016-12-10T02:33:47.948Z,1016.32
2016-12-10T02:35:02.943Z,1016.33
2016-12-10T02:36:17.577Z,1016.34
2016-12-10T02:37:33.464Z,1016.31
2016-12-10T02:38:46.696Z,1016.31
2016-12-10T02:40:02.438Z,1016.31
2016-12-10T02:41:18.630Z,1016.31
2016-12-10T02:42:32.066Z,1016.2
2016-12-10T02:43:46.522Z,1016.25
2016-12-10T02:45:00.730Z,1016.25
2016-12-10T02:46:15.550Z,1016.19
2016-12-10T02:47:32.150Z,1016.14
2016-12-10T02:48:45.535Z,1016.11
2016-12-10T02:49:58.700Z,1016.13
2016-12-10T02:51:14.600Z,1016.09
2016-12-10T02:52:30.668Z,1016.07
2016-12-10T02:53:45.891Z,1015.98
2016-12-10T02:55:00.421Z,1015.93
2016-12-10T02:56:16.144Z,1015.9
2016-12-10T02:57:31.070Z,1015.86
2016-12-10T02:58:46.234Z,1015.81
2016-12-10T03:00:02.150Z,1015.83
2016-12-10T03:01:17.907Z,1015.83
2016-12-10T03:02:31.701Z,1015.81
2016-12-10T03:03:46.881Z,1015.71
2016-12-10T03:04:59.793Z,1015.73
2016-12-10T03:06:14.184Z,1015.67
2016-12-10T03:07:31.137Z,1015.75
2016-12-10T03:08:47.176Z,1015.68
2016-12-10T03:10:03.054Z,1015.64
2016-12-10T03:11:18.959Z,1015.62
2016-12-10T03:12:33.384Z,1015.57
2016-12-10T03:13:49.022Z,1015.55
2016-12-10T03:15:03.039Z,1015.55
2016-12-10T03:16:19.020Z,1015.5
2016-12-10T03:17:34.915Z,1015.48
2016-12-10T03:18:49.278Z,1015.51
2016-12-10T03:20:02.755Z,1015.46
2016-12-10T03:21:17.130Z,1015.44
2016-12-10T03:22:32.197Z,1015.33
2016-12-10T03:23:45.433Z,1015.31
2016-12-10T03:25:01.901Z,1015.22
2016-12-10T03:26:18.410Z,1015.24
2016-12-10T03:27:31.649Z,1015.17
2016-12-10T03:28:47.707Z,1015.14
2016-12-10T03:30:04.139Z,1015.17
2016-12-10T03:31:18.584Z,1015.15
2016-12-10T03:32:33.520Z,1015.08
2016-12-10T03:33:48.266Z,1015.04
2016-12-10T03:35:04.574Z,1015.08
2016-12-10T03:36:20.234Z,1015.04
2016-12-10T03:37:35.503Z,1015.05
2016-12-10T03:38:49.556Z,1015.09
2016-12-10T03:40:05.709Z,1015.09
2016-12-10T03:41:20.889Z,1015.12
2016-12-10T03:42:34.330Z,1015.11
2016-12-10T03:43:50.481Z,1015.1
2016-12-10T03:45:04.959Z,1015.14
2016-12-10T03:46:19.415Z,1015.13
2016-12-10T03:47:35.099Z,1015.15
2016-12-10T03:48:51.411Z,1015.1
2016-12-10T03:50:07.327Z,1015.1
2016-12-10T03:51:22.039Z,1015.07
2016-12-10T03:52:36.051Z,1015.02
2016-12-10T03:53:51.216Z,1014.96
2016-12-10T03:55:07.108Z,1014.94
2016-12-10T03:56:22.845Z,1014.98
2016-12-10T03:57:39.175Z,1014.89
2016-12-10T03:58:50.944Z,1014.97
2016-12-10T04:00:05.622Z,1014.98
2016-12-10T04:01:21.789Z,1014.97
2016-12-10T04:02:35.019Z,1014.99
2016-12-10T04:03:51.151Z,1015.09
2016-12-10T04:05:03.096Z,1015.13
2016-12-10T04:06:19.636Z,1015.17
2016-12-10T04:07:35.958Z,1015.14
2016-12-10T04:08:52.107Z,1015.14
2016-12-10T04:10:08.264Z,1015.13
2016-12-10T04:11:24.656Z,1015.11
2016-12-10T04:12:39.466Z,1015.07
2016-12-10T04:13:52.672Z,1015.08
2016-12-10T04:15:08.104Z,1015.08
2016-12-10T04:16:23.595Z,1015.09
2016-12-10T04:17:40.166Z,1015.09
2016-12-10T04:18:56.631Z,1015.06
2016-12-10T04:20:09.779Z,1015
2016-12-10T04:21:26.069Z,1015.09
2016-12-10T04:22:39.487Z,1015.05
2016-12-10T04:23:55.002Z,1014.97
2016-12-10T04:25:11.365Z,1015.01
2016-12-10T04:26:26.290Z,1015.06
2016-12-10T04:27:40.899Z,1015.07
2016-12-10T04:28:57.216Z,1015.09
2016-12-10T04:30:12.462Z,1015.07
2016-12-10T04:31:25.792Z,1015.08
2016-12-10T04:32:39.209Z,1015.03
2016-12-10T04:33:53.840Z,1015.05
2016-12-10T04:35:08.316Z,1015.06
2016-12-10T04:36:24.199Z,1015.02
2016-12-10T04:37:37.588Z,1015
2016-12-10T04:38:54.344Z,1014.95
2016-12-10T04:40:07.833Z,1014.9
2016-12-10T04:41:23.526Z,1014.94
2016-12-10T04:42:39.190Z,1014.95
2016-12-10T04:43:54.821Z,1014.93
2016-12-10T04:45:09.857Z,1014.93
2016-12-10T04:46:24.723Z,1014.93
2016-12-10T04:47:37.476Z,1014.88
2016-12-10T04:48:53.767Z,1014.87
2016-12-10T04:50:05.786Z,1014.79
2016-12-10T04:51:21.569Z,1014.79
2016-12-10T04:52:34.879Z,1014.73
2016-12-10T04:53:50.971Z,1014.74
2016-12-10T04:55:07.018Z,1014.79
2016-12-10T04:56:23.350Z,1014.72
2016-12-10T04:57:39.538Z,1014.66
2016-12-10T04:58:55.189Z,1014.67
2016-12-10T05:00:08.527Z,1014.66
2016-12-10T05:01:24.522Z,1014.6
2016-12-10T05:02:39.208Z,1014.54
2016-12-10T05:03:53.295Z,1014.59
2016-12-10T05:05:08.882Z,1014.53
2016-12-10T05:06:24.592Z,1014.54
2016-12-10T05:07:41.322Z,1014.51
2016-12-10T05:08:54.562Z,1014.48
2016-12-10T05:10:11.371Z,1014.52
2016-12-10T05:11:27.510Z,1014.5
2016-12-10T05:12:41.185Z,1014.45
2016-12-10T05:13:57.760Z,1014.38
2016-12-10T05:15:14.382Z,1014.42
2016-12-10T05:16:29.612Z,1014.4
2016-12-10T05:17:43.835Z,1014.36
2016-12-10T05:18:57.723Z,1014.38
2016-12-10T05:20:13.002Z,1014.42
2016-12-10T05:21:24.602Z,1014.4
2016-12-10T05:22:37.909Z,1014.4
2016-12-10T05:23:53.076Z,1014.34
2016-12-10T05:25:08.961Z,1014.5
2016-12-10T05:26:24.149Z,1014.43
2016-12-10T05:27:39.932Z,1014.49
2016-12-10T05:28:53.416Z,1014.43
2016-12-10T05:30:10.056Z,1014.41
2016-12-10T05:31:24.893Z,1014.43
2016-12-10T05:32:39.540Z,1014.36
2016-12-10T05:33:55.071Z,1014.39
2016-12-10T05:35:08.289Z,1014.36
2016-12-10T05:36:24.200Z,1014.33
2016-12-10T05:37:38.908Z,1014.35
2016-12-10T05:38:54.412Z,1014.37
2016-12-10T05:40:07.577Z,1014.36
2016-12-10T05:41:22.356Z,1014.4
2016-12-10T05:42:37.306Z,1014.35
2016-12-10T05:43:52.251Z,1014.43
2016-12-10T05:45:07.321Z,1014.38
2016-12-10T05:46:22.562Z,1014.5
2016-12-10T05:47:37.248Z,1014.66
2016-12-10T05:48:51.975Z,1014.59
2016-12-10T05:50:07.078Z,1014.64
2016-12-10T05:51:21.753Z,1014.73
2016-12-10T05:52:33.988Z,1014.75
2016-12-10T05:53:48.413Z,1014.77
2016-12-10T05:55:04.312Z,1014.74
2016-12-10T05:56:20.273Z,1014.74
2016-12-10T05:57:33.191Z,1014.79
2016-12-10T05:58:45.390Z,1014.77
2016-12-10T05:59:58.379Z,1014.87
2016-12-10T06:01:14.440Z,1014.81
2016-12-10T06:02:29.482Z,1014.81
2016-12-10T06:03:42.696Z,1014.9
2016-12-10T06:04:59.050Z,1014.92
2016-12-10T06:06:13.521Z,1014.91
2016-12-10T06:07:28.208Z,1014.86
2016-12-10T06:08:40.130Z,1014.92
2016-12-10T06:09:54.846Z,1014.96
2016-12-10T06:11:07.851Z,1014.91
2016-12-10T06:12:22.938Z,1014.89
2016-12-10T06:13:39.233Z,1014.87
2016-12-10T06:14:54.500Z,1014.92
2016-12-10T06:16:09.517Z,1014.91
2016-12-10T06:17:23.216Z,1014.98
2016-12-10T06:18:39.833Z,1014.95
2016-12-10T06:19:54.147Z,1014.91
2016-12-10T06:21:09.196Z,1015.02
2016-12-10T06:22:23.807Z,1014.95
2016-12-10T06:23:38.344Z,1014.96
2016-12-10T06:24:53.162Z,1014.94
2016-12-10T06:26:04.931Z,1014.91
2016-12-10T06:27:16.849Z,1014.92
2016-12-10T06:28:33.000Z,1015.01
2016-12-10T06:29:47.937Z,1015
2016-12-10T06:31:03.188Z,1014.91
2016-12-10T06:32:19.307Z,1014.98
2016-12-10T06:33:35.660Z,1014.92
2016-12-10T06:34:51.144Z,1014.92
2016-12-10T06:36:07.204Z,1014.92
2016-12-10T06:37:21.265Z,1015
2016-12-10T06:38:35.610Z,1014.9
2016-12-10T06:39:51.519Z,1014.94
2016-12-10T06:41:05.700Z,1014.87
2016-12-10T06:42:21.490Z,1014.9
2016-12-10T06:43:35.920Z,1014.86
2016-12-10T06:44:50.126Z,1014.89
2016-12-10T06:46:05.959Z,1014.89
2016-12-10T06:47:21.157Z,1014.82
2016-12-10T06:48:35.632Z,1014.84
2016-12-10T06:49:51.327Z,1014.86
2016-12-10T06:51:06.032Z,1014.9
2016-12-10T06:52:20.302Z,1014.88
2016-12-10T06:53:32.150Z,1014.97
2016-12-10T06:54:47.344Z,1014.94
2016-12-10T06:56:04.108Z,1014.96
2016-12-10T06:57:18.638Z,1014.95
2016-12-10T06:58:33.761Z,1014.99
2016-12-10T06:59:47.397Z,1014.95
2016-12-10T07:01:02.603Z,1014.98
2016-12-10T07:02:18.898Z,1015
2016-12-10T07:03:33.770Z,1015.01
2016-12-10T07:04:46.979Z,1015.07
2016-12-10T07:06:03.433Z,1015.01
2016-12-10T07:07:20.076Z,1015.01
2016-12-10T07:08:35.028Z,1015.04
2016-12-10T07:09:51.095Z,1014.99
2016-12-10T07:11:04.999Z,1014.96
2016-12-10T07:12:18.622Z,1014.92
2016-12-10T07:13:35.215Z,1014.91
2016-12-10T07:14:51.193Z,1014.91
2016-12-10T07:16:07.653Z,1014.9
2016-12-10T07:17:23.965Z,1014.93
2016-12-10T07:18:39.789Z,1014.96
2016-12-10T07:19:54.363Z,1014.94
2016-12-10T07:21:09.461Z,1014.9
2016-12-10T07:22:25.463Z,1014.93
2016-12-10T07:23:42.564Z,1014.95
2016-12-10T07:24:57.205Z,1014.93
2016-12-10T07:26:11.897Z,1014.87
2016-12-10T07:27:27.543Z,1014.88
2016-12-10T07:28:39.166Z,1014.78
2016-12-10T07:29:53.472Z,1014.73
2016-12-10T07:31:08.561Z,1014.78
2016-12-10T07:32:24.745Z,1014.86
2016-12-10T07:33:40.850Z,1014.83
2016-12-10T07:34:54.817Z,1014.79
2016-12-10T07:36:09.379Z,1014.84
2016-12-10T07:37:24.631Z,1014.9
2016-12-10T07:38:39.418Z,1014.88
2016-12-10T07:39:54.456Z,1014.9
2016-12-10T07:41:08.908Z,1014.91
2016-12-10T07:42:23.526Z,1014.92
2016-12-10T07:43:37.549Z,1014.93
2016-12-10T07:44:53.707Z,1014.94
2016-12-10T07:46:07.059Z,1014.98
2016-12-10T07:47:23.101Z,1014.9
2016-12-10T07:48:38.743Z,1014.91
2016-12-10T07:49:53.847Z,1014.9
2016-12-10T07:51:06.539Z,1014.97
2016-12-10T07:52:23.239Z,1014.97
2016-12-10T07:53:39.917Z,1014.99
2016-12-10T07:54:54.541Z,1015.01
2016-12-10T07:56:06.290Z,1015.05
2016-12-10T07:57:19.695Z,1014.94
2016-12-10T07:58:31.976Z,1014.96
2016-12-10T07:59:47.709Z,1015.03
2016-12-10T08:01:03.105Z,1015.05
2016-12-10T08:02:17.803Z,1015.11
2016-12-10T08:03:32.712Z,1015.1
2016-12-10T08:04:49.261Z,1015.15
2016-12-10T08:06:05.926Z,1015.16
2016-12-10T08:07:21.949Z,1015.15
2016-12-10T08:08:36.217Z,1015.18
2016-12-10T08:09:51.148Z,1015.19
2016-12-10T08:11:06.310Z,1015.15
2016-12-10T08:12:20.115Z,1015.15
2016-12-10T08:13:36.444Z,1015.14
2016-12-10T08:14:51.086Z,1015.16
2016-12-10T08:16:06.960Z,1015.19
2016-12-10T08:17:20.055Z,1015.21
2016-12-10T08:18:33.158Z,1015.2
2016-12-10T08:19:49.124Z,1015.19
2016-12-10T08:21:03.976Z,1015.21
2016-12-10T08:22:18.612Z,1015.17
2016-12-10T08:23:34.747Z,1015.22
2016-12-10T08:24:47.641Z,1015.24
2016-12-10T08:26:03.898Z,1015.18
2016-12-10T08:27:17.324Z,1015.16
2016-12-10T08:28:32.011Z,1015.23
2016-12-10T08:29:48.259Z,1015.24
2016-12-10T08:31:02.835Z,1015.29
2016-12-10T08:32:19.127Z,1015.26
2016-12-10T08:33:32.232Z,1015.31
2016-12-10T08:34:47.620Z,1015.34
2016-12-10T08:36:03.824Z,1015.39
2016-12-10T08:37:17.499Z,1015.36
2016-12-10T08:38:32.402Z,1015.37
2016-12-10T08:39:48.512Z,1015.36
2016-12-10T08:41:04.359Z,1015.34
2016-12-10T08:42:20.899Z,1015.44
2016-12-10T08:43:35.207Z,1015.47
2016-12-10T08:44:49.978Z,1015.38
2016-12-10T08:46:04.785Z,1015.4
2016-12-10T08:47:19.952Z,1015.43
2016-12-10T08:48:33.244Z,1015.4
2016-12-10T08:49:49.742Z,1015.41
2016-12-10T08:51:05.806Z,1015.4
2016-12-10T08:52:21.756Z,1015.37
2016-12-10T08:53:38.047Z,1015.27
2016-12-10T08:54:54.589Z,1015.22
2016-12-10T08:56:09.582Z,1015.2
2016-12-10T08:57:23.831Z,1015.23
2016-12-10T08:58:36.865Z,1015.19
2016-12-10T08:59:48.768Z,1015.16
2016-12-10T09:01:03.304Z,1015.14
2016-12-10T09:02:16.799Z,1015.19
2016-12-10T09:03:31.888Z,1015.21
2016-12-10T09:04:46.322Z,1015.22
2016-12-10T09:06:03.046Z,1015.28
2016-12-10T09:07:17.762Z,1015.28
2016-12-10T09:08:33.248Z,1015.26
2016-12-10T09:09:49.163Z,1015.27
2016-12-10T09:11:04.502Z,1015.3
2016-12-10T09:12:19.361Z,1015.31
2016-12-10T09:13:33.976Z,1015.4
2016-12-10T09:14:47.712Z,1015.36
2016-12-10T09:15:59.643Z,1015.41
2016-12-10T09:17:13.662Z,1015.41
2016-12-10T09:18:26.396Z,1015.41
2016-12-10T09:19:43.004Z,1015.43
2016-12-10T09:20:59.458Z,1015.33
2016-12-10T09:22:15.375Z,1015.29
2016-12-10T09:23:31.756Z,1015.24
2016-12-10T09:24:48.792Z,1015.35
2016-12-10T09:26:03.844Z,1015.39
2016-12-10T09:27:19.262Z,1015.43
2016-12-10T09:28:35.712Z,1015.36
2016-12-10T09:29:46.386Z,1015.33
2016-12-10T09:31:02.959Z,1015.27
2016-12-10T09:32:18.909Z,1015.26
2016-12-10T09:33:34.446Z,1015.31
2016-12-10T09:34:51.555Z,1015.32
2016-12-10T09:36:07.119Z,1015.45
2016-12-10T09:37:21.975Z,1015.46
2016-12-10T09:38:37.062Z,1015.48
2016-12-10T09:39:54.040Z,1015.49
2016-12-10T09:41:11.180Z,1015.47
2016-12-10T09:42:25.569Z,1015.5
2016-12-10T09:43:39.214Z,1015.5
2016-12-10T09:44:54.158Z,1015.47
2016-12-10T09:46:10.666Z,1015.49
2016-12-10T09:47:28.041Z,1015.5
2016-12-10T09:48:44.100Z,1015.48
2016-12-10T09:49:55.975Z,1015.5
2016-12-10T09:51:11.258Z,1015.47
2016-12-10T09:52:26.432Z,1015.46
2016-12-10T09:53:43.034Z,1015.36
2016-12-10T09:54:58.486Z,1015.34
2016-12-10T09:56:14.814Z,1015.29
2016-12-10T09:57:29.844Z,1015.26
2016-12-10T09:58:44.909Z,1015.27
2016-12-10T10:00:00.668Z,1015.29
2016-12-10T10:01:15.363Z,1015.32
2016-12-10T10:02:30.620Z,1015.29
2016-12-10T10:03:47.190Z,1015.36
2016-12-10T10:05:00.838Z,1015.4
2016-12-10T10:06:14.378Z,1015.38
2016-12-10T10:07:29.275Z,1015.36
2016-12-10T10:08:43.974Z,1015.34
2016-12-10T10:09:57.494Z,1015.37
2016-12-10T10:11:13.436Z,1015.32
2016-12-10T10:12:29.216Z,1015.34
2016-12-10T10:13:44.052Z,1015.26
2016-12-10T10:14:59.517Z,1015.24
2016-12-10T10:16:16.288Z,1015.2
2016-12-10T10:17:32.491Z,1015.22
2016-12-10T10:18:48.653Z,1015.17
2016-12-10T10:20:01.758Z,1015.24
2016-12-10T10:21:17.459Z,1015.23
2016-12-10T10:22:34.396Z,1015.29
2016-12-10T10:23:50.951Z,1015.29
2016-12-10T10:25:04.675Z,1015.31
2016-12-10T10:26:21.614Z,1015.21
2016-12-10T10:27:35.747Z,1015.23
2016-12-10T10:28:50.523Z,1015.24
2016-12-10T10:30:05.833Z,1015.26
2016-12-10T10:31:18.049Z,1015.27
2016-12-10T10:32:31.460Z,1015.25
2016-12-10T10:33:46.558Z,1015.29
2016-12-10T10:34:59.790Z,1015.24
2016-12-10T10:36:12.864Z,1015.26
2016-12-10T10:37:26.825Z,1015.27
2016-12-10T10:38:41.358Z,1015.24
2016-12-10T10:39:57.020Z,1015.26
2016-12-10T10:41:13.584Z,1015.23
2016-12-10T10:42:29.941Z,1015.19
2016-12-10T10:43:46.283Z,1015.21
2016-12-10T10:45:03.192Z,1015.2
2016-12-10T10:46:16.729Z,1015.19
2016-12-10T10:47:31.450Z,1015.15
2016-12-10T10:48:47.479Z,1015.19
2016-12-10T10:50:02.769Z,1015.2
2016-12-10T10:51:19.556Z,1015.22
2016-12-10T10:52:34.133Z,1015.21
2016-12-10T10:53:50.772Z,1015.28
2016-12-10T10:55:08.200Z,1015.3
2016-12-10T10:56:25.167Z,1015.35
2016-12-10T10:57:40.373Z,1015.37
2016-12-10T10:58:54.408Z,1015.39
2016-12-10T11:00:09.898Z,1015.46
2016-12-10T11:01:23.929Z,1015.41
2016-12-10T11:02:38.944Z,1015.38
2016-12-10T11:03:55.248Z,1015.37
2016-12-10T11:05:08.789Z,1015.34
2016-12-10T11:06:24.277Z,1015.37
2016-12-10T11:07:40.451Z,1015.34
2016-12-10T11:08:55.133Z,1015.23
2016-12-10T11:10:07.511Z,1015.21
2016-12-10T11:11:22.540Z,1015.22
2016-12-10T11:12:38.624Z,1015.18
2016-12-10T11:13:55.372Z,1015.21
2016-12-10T11:15:10.367Z,1015.24
2016-12-10T11:16:23.868Z,1015.21
2016-12-10T11:17:37.341Z,1015.22
2016-12-10T11:18:53.411Z,1015.23
2016-12-10T11:20:07.877Z,1015.26
2016-12-10T11:21:22.671Z,1015.22
2016-12-10T11:22:39.273Z,1015.18
2016-12-10T11:23:56.030Z,1015.15
2016-12-10T11:25:11.793Z,1015.12
2016-12-10T11:26:27.852Z,1015.18
2016-12-10T11:27:43.782Z,1015.17
2016-12-10T11:28:58.516Z,1015.13
2016-12-10T11:30:14.254Z,1015.21
2016-12-10T11:31:30.623Z,1015.23
2016-12-10T11:32:47.369Z,1015.19
2016-12-10T11:34:03.981Z,1015.25
2016-12-10T11:35:18.612Z,1015.22
2016-12-10T11:36:34.775Z,1015.22
2016-12-10T11:37:47.930Z,1015.16
2016-12-10T11:39:02.973Z,1015.07
2016-12-10T11:40:19.767Z,1015.12
2016-12-10T11:41:35.920Z,1015.11
2016-12-10T11:42:52.858Z,1015.11
2016-12-10T11:44:07.909Z,1015.14
2016-12-10T11:45:24.656Z,1015.1
2016-12-10T11:46:39.957Z,1015.16
2016-12-10T11:47:55.147Z,1015.1
2016-12-10T11:49:11.637Z,1015.19
2016-12-10T11:50:26.264Z,1015.13
2016-12-10T11:51:41.204Z,1015.15
2016-12-10T11:52:55.941Z,1015.13
2016-12-10T11:54:12.242Z,1015.22
2016-12-10T11:55:25.909Z,1015.14
2016-12-10T11:56:41.866Z,1015.19
2016-12-10T11:57:57.396Z,1015.2
2016-12-10T11:59:13.728Z,1015.17
2016-12-10T12:00:28.964Z,1015.21
2016-12-10T12:01:44.305Z,1015.21
2016-12-10T12:02:59.124Z,1015.15
2016-12-10T12:04:15.745Z,1015.14
2016-12-10T12:05:32.215Z,1015.11
2016-12-10T12:06:46.450Z,1015.09
2016-12-10T12:07:56.772Z,1015.06
2016-12-10T12:09:11.637Z,1015.1
2016-12-10T12:10:28.617Z,1015
2016-12-10T12:11:43.980Z,1014.98
2016-12-10T12:12:57.404Z,1014.89
2016-12-10T12:14:13.357Z,1014.93
2016-12-10T12:15:27.045Z,1014.92
2016-12-10T12:16:41.950Z,1014.94
2016-12-10T12:17:57.937Z,1014.9
2016-12-10T12:19:12.553Z,1014.92
2016-12-10T12:20:26.131Z,1014.93
2016-12-10T12:21:41.174Z,1014.88
2016-12-10T12:22:54.308Z,1014.89
2016-12-10T12:24:10.927Z,1014.89
2016-12-10T12:25:25.904Z,1014.88
2016-12-10T12:26:40.262Z,1014.88
2016-12-10T12:27:54.784Z,1014.91
2016-12-10T12:29:09.668Z,1014.88
2016-12-10T12:30:25.669Z,1014.88
2016-12-10T12:31:40.952Z,1014.89
2016-12-10T12:32:57.100Z,1014.89
2016-12-10T12:34:13.298Z,1014.91
2016-12-10T12:35:29.035Z,1014.96
2016-12-10T12:36:43.520Z,1014.94
2016-12-10T12:37:59.570Z,1014.96
2016-12-10T12:39:15.880Z,1014.95
2016-12-10T12:40:32.206Z,1014.93
2016-12-10T12:41:47.134Z,1014.91
2016-12-10T12:43:03.461Z,1014.88
2016-12-10T12:44:20.126Z,1014.79
2016-12-10T12:45:32.175Z,1014.8
2016-12-10T12:46:48.492Z,1014.83
2016-12-10T12:48:02.696Z,1014.83
2016-12-10T12:49:14.741Z,1014.82
2016-12-10T12:50:29.647Z,1014.85
2016-12-10T12:51:44.482Z,1014.8
2016-12-10T12:52:58.537Z,1014.81
2016-12-10T12:54:13.738Z,1014.79
2016-12-10T12:55:28.683Z,1014.85
2016-12-10T12:56:39.366Z,1014.8
2016-12-10T12:57:54.753Z,1014.74
2016-12-10T12:59:09.373Z,1014.72
2016-12-10T13:00:26.205Z,1014.76
2016-12-10T13:01:42.682Z,1014.79
2016-12-10T13:02:58.630Z,1014.75
2016-12-10T13:04:13.332Z,1014.75
2016-12-10T13:05:28.328Z,1014.77
2016-12-10T13:06:44.919Z,1014.78
2016-12-10T13:07:59.767Z,1014.77
2016-12-10T13:09:14.875Z,1014.79
2016-12-10T13:10:29.718Z,1014.75
2016-12-10T13:11:44.487Z,1014.7
2016-12-10T13:12:59.360Z,1014.7
2016-12-10T13:14:12.884Z,1014.72
2016-12-10T13:15:27.823Z,1014.74
2016-12-10T13:16:43.294Z,1014.76
2016-12-10T13:17:59.342Z,1014.7
2016-12-10T13:19:16.082Z,1014.67
2016-12-10T13:20:31.180Z,1014.67
2016-12-10T13:21:45.747Z,1014.63
2016-12-10T13:23:02.644Z,1014.58
2016-12-10T13:24:19.372Z,1014.57
2016-12-10T13:25:33.241Z,1014.57
2016-12-10T13:26:48.364Z,1014.57
2016-12-10T13:28:04.769Z,1014.54
2016-12-10T13:29:18.838Z,1014.58
2016-12-10T13:30:32.352Z,1014.52
2016-12-10T13:31:46.661Z,1014.49
2016-12-10T13:33:02.538Z,1014.47
2016-12-10T13:34:16.090Z,1014.51
2016-12-10T13:35:32.086Z,1014.49
2016-12-10T13:36:48.257Z,1014.54
2016-12-10T13:38:04.918Z,1014.53
2016-12-10T13:39:21.283Z,1014.58
2016-12-10T13:40:36.130Z,1014.58
2016-12-10T13:41:52.799Z,1014.58
2016-12-10T13:43:09.024Z,1014.56
2016-12-10T13:44:25.362Z,1014.57
2016-12-10T13:45:41.832Z,1014.55
2016-12-10T13:46:58.298Z,1014.5
2016-12-10T13:48:13.680Z,1014.5
2016-12-10T13:49:28.339Z,1014.5
2016-12-10T13:50:43.597Z,1014.49
2016-12-10T13:51:57.174Z,1014.48
2016-12-10T13:53:13.299Z,1014.45
2016-12-10T13:54:26.380Z,1014.43
2016-12-10T13:55:41.025Z,1014.39
2016-12-10T13:56:57.611Z,1014.39
2016-12-10T13:58:13.562Z,1014.33
2016-12-10T13:59:29.420Z,1014.34
2016-12-10T14:00:46.254Z,1014.36
2016-12-10T14:02:00.993Z,1014.33
2016-12-10T14:03:14.816Z,1014.32
2016-12-10T14:04:28.324Z,1014.3
2016-12-10T14:05:43.123Z,1014.3
2016-12-10T14:06:59.457Z,1014.31
2016-12-10T14:08:14.197Z,1014.3
2016-12-10T14:09:28.952Z,1014.29
2016-12-10T14:10:42.389Z,1014.31
2016-12-10T14:11:56.920Z,1014.28
2016-12-10T14:13:11.680Z,1014.28
2016-12-10T14:14:27.833Z,1014.31
2016-12-10T14:15:41.539Z,1014.32
2016-12-10T14:16:57.976Z,1014.29
2016-12-10T14:18:13.961Z,1014.29
2016-12-10T14:19:27.652Z,1014.29
2016-12-10T14:20:44.169Z,1014.35
2016-12-10T14:22:01.019Z,1014.29
2016-12-10T14:23:15.988Z,1014.3
2016-12-10T14:24:30.670Z,1014.3
2016-12-10T14:25:45.155Z,1014.27
2016-12-10T14:27:00.797Z,1014.3
2016-12-10T14:28:15.333Z,1014.24
2016-12-10T14:29:30.525Z,1014.24
2016-12-10T14:30:46.485Z,1014.25
2016-12-10T14:32:01.077Z,1014.21
2016-12-10T14:33:15.852Z,1014.22
2016-12-10T14:34:30.988Z,1014.26
2016-12-10T14:35:45.689Z,1014.22
2016-12-10T14:37:02.479Z,1014.24
2016-12-10T14:38:17.385Z,1014.24
2016-12-10T14:39:33.809Z,1014.19
2016-12-10T14:40:49.753Z,1014.17
2016-12-10T14:42:02.916Z,1014.11
2016-12-10T14:43:19.328Z,1014.11
2016-12-10T14:44:35.232Z,1014.09
2016-12-10T14:45:49.957Z,1014.07
2016-12-10T14:47:06.671Z,1014.08
2016-12-10T14:48:23.280Z,1014.12
2016-12-10T14:49:37.046Z,1014.06
2016-12-10T14:50:53.468Z,1014.12
2016-12-10T14:52:08.421Z,1014.13
2016-12-10T14:53:23.356Z,1014.19
2016-12-10T14:54:39.581Z,1014.24
2016-12-10T14:55:55.895Z,1014.23
2016-12-10T14:57:12.183Z,1014.14
2016-12-10T14:58:25.440Z,1014.09
2016-12-10T14:59:41.344Z,1014.1
2016-12-10T15:00:57.428Z,1014.16
2016-12-10T15:02:11.761Z,1014.19
2016-12-10T15:03:23.463Z,1014.18
2016-12-10T15:04:39.521Z,1014.14
2016-12-10T15:05:55.863Z,1014.13
2016-12-10T15:07:12.992Z,1014.16
2016-12-10T15:08:28.942Z,1014.19
2016-12-10T15:09:42.697Z,1014.23
2016-12-10T15:10:57.528Z,1014.24
2016-12-10T15:12:11.446Z,1014.24